createdAt,value
2019-02-18T00:01:36.141Z,98281.59
2019-02-18T00:04:03.106Z,98279.02
2019-02-18T00:06:30.009Z,98284.53
2019-02-18T00:08:56.707Z,98280.14
2019-02-18T00:11:23.290Z,98289.34
2019-02-18T00:13:50.147Z,98283.48
2019-02-18T00:16:17.038Z,98285.06
2019-02-18T00:18:43.667Z,98278.63
2019-02-18T00:21:10.271Z,98276.35
2019-02-18T00:23:37.158Z,98279.34
2019-02-18T00:26:05.016Z,98279.74
2019-02-18T00:28:31.685Z,98282.67
2019-02-18T00:30:58.347Z,98282.23
2019-02-18T00:33:24.958Z,98281.44
2019-02-18T00:35:51.617Z,98276.11
2019-02-18T00:38:18.531Z,98280.55
2019-02-18T00:40:45.538Z,98280.08
2019-02-18T00:43:12.392Z,98274.09
2019-02-18T00:45:39.189Z,98275.50
2019-02-18T00:48:06.228Z,98280.94
2019-02-18T00:50:32.962Z,98286.03
2019-02-18T00:52:59.654Z,98278.43
2019-02-18T00:55:26.679Z,98276.16
2019-02-18T00:57:53.327Z,98272.40
2019-02-18T01:00:19.924Z,98275.98
2019-02-18T01:02:46.737Z,98278.52
2019-02-18T01:05:13.628Z,98276.06
2019-02-18T01:07:41.131Z,98275.83
2019-02-18T01:10:07.877Z,98272.31
2019-02-18T01:12:34.550Z,98271.16
2019-02-18T01:15:01.237Z,98271.77
2019-02-18T01:17:28.181Z,98265.03
2019-02-18T01:19:54.789Z,98264.07
2019-02-18T01:22:21.464Z,98256.84
2019-02-18T01:24:48.077Z,98258.73
2019-02-18T01:27:14.674Z,98254.53
2019-02-18T01:29:42.095Z,98252.45
2019-02-18T01:32:08.801Z,98255.24
2019-02-18T01:34:35.581Z,98245.98
2019-02-18T01:37:02.169Z,98245.94
2019-02-18T01:39:29.110Z,98239.18
2019-02-18T01:41:56.479Z,98238.58
2019-02-18T01:44:23.364Z,98236.66
2019-02-18T01:46:50.029Z,98233.88
2019-02-18T01:49:16.681Z,98233.72
2019-02-18T01:51:43.717Z,98230.41
2019-02-18T01:54:10.444Z,98223.69
2019-02-18T01:56:37.059Z,98225.36
2019-02-18T01:59:04.200Z,98217.88
2019-02-18T02:01:31.366Z,98226.72
2019-02-18T02:03:58.348Z,98221.89
2019-02-18T02:06:24.921Z,98213.00
2019-02-18T02:08:51.641Z,98212.66
2019-02-18T02:11:18.630Z,98211.45
2019-02-18T02:13:45.895Z,98204.60
2019-02-18T02:16:14.275Z,98209.41
2019-02-18T02:18:41.003Z,98210.91
2019-02-18T02:21:07.966Z,98210.94
2019-02-18T02:23:34.642Z,98200.24
2019-02-18T02:26:01.289Z,98204.48
2019-02-18T02:28:27.958Z,98198.42
2019-02-18T02:30:54.852Z,98196.52
2019-02-18T02:33:21.525Z,98197.31
2019-02-18T02:35:48.425Z,98195.08
2019-02-18T02:38:16.505Z,98189.97
2019-02-18T02:40:45.771Z,98192.49
2019-02-18T02:43:12.403Z,98195.91
2019-02-18T02:48:19.564Z,98187.20
2019-02-18T02:50:46.329Z,98191.16
2019-02-18T02:53:13.151Z,98186.23
2019-02-18T02:55:40.109Z,98182.36
2019-02-18T02:58:06.735Z,98187.34
2019-02-18T03:00:33.447Z,98190.06
2019-02-18T03:03:00.222Z,98191.12
2019-02-18T03:05:27.128Z,98185.88
2019-02-18T03:07:53.829Z,98188.78
2019-02-18T03:10:20.523Z,98179.62
2019-02-18T03:12:47.392Z,98184.91
2019-02-18T03:15:15.775Z,98184.77
2019-02-18T03:17:42.506Z,98183.09
2019-02-18T03:20:09.372Z,98182.75
2019-02-18T03:22:36.034Z,98183.02
2019-02-18T03:25:02.962Z,98180.48
2019-02-18T03:27:29.802Z,98180.39
2019-02-18T03:29:56.736Z,98179.56
2019-02-18T03:32:23.888Z,98178.63
2019-02-18T03:34:50.793Z,98184.69
2019-02-18T03:37:17.697Z,98177.05
2019-02-18T03:39:46.121Z,98185.39
2019-02-18T03:42:13.963Z,98183.36
2019-02-18T03:44:40.803Z,98190.64
2019-02-18T03:47:07.469Z,98192.05
2019-02-18T03:49:34.176Z,98188.22
2019-02-18T03:52:00.935Z,98185.33
2019-02-18T03:54:27.873Z,98184.63
2019-02-18T03:56:55.007Z,98182.72
2019-02-18T03:59:21.961Z,98183.30
2019-02-18T04:01:49.017Z,98187.65
2019-02-18T04:04:16.382Z,98186.15
2019-02-18T04:06:43.181Z,98182.30
2019-02-18T04:09:10.159Z,98180.77
2019-02-18T04:11:37.056Z,98186.27
2019-02-18T04:14:03.766Z,98189.11
2019-02-18T04:16:30.430Z,98190.62
2019-02-18T04:18:57.671Z,98185.58
2019-02-18T04:21:24.432Z,98179.52
2019-02-18T04:23:51.073Z,98180.84
2019-02-18T04:26:17.745Z,98175.55
2019-02-18T04:28:44.488Z,98175.20
2019-02-18T04:31:11.103Z,98181.01
2019-02-18T04:33:37.746Z,98176.45
2019-02-18T04:36:04.567Z,98173.27
2019-02-18T04:38:31.194Z,98176.83
2019-02-18T04:40:57.921Z,98175.00
2019-02-18T04:43:24.924Z,98172.31
2019-02-18T04:45:51.678Z,98172.96
2019-02-18T04:48:19.205Z,98168.88
2019-02-18T04:50:47.052Z,98169.66
2019-02-18T04:53:13.800Z,98164.08
2019-02-18T04:55:40.749Z,98165.73
2019-02-18T04:58:07.300Z,98164.78
2019-02-18T05:00:33.950Z,98166.70
2019-02-18T05:03:01.208Z,98162.96
2019-02-18T05:05:28.174Z,98157.40
2019-02-18T05:07:56.455Z,98161.82
2019-02-18T05:10:23.242Z,98153.98
2019-02-18T05:12:50.061Z,98155.52
2019-02-18T05:15:17.824Z,98161.30
2019-02-18T05:17:44.403Z,98156.51
2019-02-18T05:20:11.147Z,98158.79
2019-02-18T05:22:38.244Z,98158.47
2019-02-18T05:25:05.252Z,98155.98
2019-02-18T05:27:33.529Z,98152.23
2019-02-18T05:30:00.679Z,98148.23
2019-02-18T05:32:27.317Z,98151.69
2019-02-18T05:34:54.214Z,98150.42
2019-02-18T05:37:20.882Z,98153.33
2019-02-18T05:39:47.706Z,98161.12
2019-02-18T05:42:14.391Z,98160.30
2019-02-18T05:44:41.847Z,98158.51
2019-02-18T05:47:08.459Z,98154.02
2019-02-18T05:49:38.294Z,98152.26
2019-02-18T05:52:05.206Z,98152.47
2019-02-18T05:54:31.798Z,98154.98
2019-02-18T05:56:58.670Z,98156.58
2019-02-18T05:59:25.675Z,98161.08
2019-02-18T06:01:52.636Z,98162.76
2019-02-18T06:04:19.583Z,98166.96
2019-02-18T06:06:47.600Z,98164.02
2019-02-18T06:09:14.235Z,98170.31
2019-02-18T06:11:40.854Z,98169.98
2019-02-18T06:14:07.743Z,98175.52
2019-02-18T06:16:34.500Z,98167.58
2019-02-18T06:19:01.103Z,98171.16
2019-02-18T06:21:27.919Z,98171.97
2019-02-18T06:23:54.809Z,98174.25
2019-02-18T06:26:22.135Z,98181.66
2019-02-18T06:28:49.004Z,98180.55
2019-02-18T06:31:15.963Z,98178.94
2019-02-18T06:33:42.704Z,98191.19
2019-02-18T06:36:09.348Z,98185.16
2019-02-18T06:38:36.085Z,98190.28
2019-02-18T06:41:02.680Z,98190.75
2019-02-18T06:43:29.592Z,98188.34
2019-02-18T06:45:58.493Z,98190.34
2019-02-18T06:48:25.475Z,98185.83
2019-02-18T06:50:52.202Z,98194.36
2019-02-18T06:53:18.929Z,98189.66
2019-02-18T06:55:45.534Z,98193.02
2019-02-18T06:58:15.310Z,98189.72
2019-02-18T07:00:41.923Z,98188.97
2019-02-18T07:03:08.543Z,98197.48
2019-02-18T07:05:35.818Z,98197.00
2019-02-18T07:08:02.512Z,98196.17
2019-02-18T07:10:29.200Z,98193.94
2019-02-18T07:12:55.887Z,98191.69
2019-02-18T07:15:22.917Z,98192.51
2019-02-18T07:17:49.720Z,98197.77
2019-02-18T07:20:16.707Z,98196.48
2019-02-18T07:22:43.419Z,98194.48
2019-02-18T07:25:13.762Z,98199.03
2019-02-18T07:27:40.398Z,98199.93
2019-02-18T07:30:09.519Z,98195.97
2019-02-18T07:32:36.928Z,98193.97
2019-02-18T07:35:06.146Z,98195.31
2019-02-18T07:37:35.818Z,98189.05
2019-02-18T07:40:08.933Z,98183.02
2019-02-18T07:42:39.028Z,98184.67
2019-02-18T07:45:07.873Z,98182.52
2019-02-18T07:47:39.298Z,98178.77
2019-02-18T07:50:06.867Z,98184.84
2019-02-18T07:52:34.443Z,98186.45
2019-02-18T07:55:04.209Z,98181.50
2019-02-18T07:57:30.544Z,98177.18
2019-02-18T07:59:58.300Z,98182.17
2019-02-18T08:02:25.548Z,98176.45
2019-02-18T08:04:52.584Z,98172.28
2019-02-18T08:07:19.697Z,98175.45
2019-02-18T08:09:46.340Z,98169.62
2019-02-18T08:12:12.975Z,98174.41
2019-02-18T08:14:39.711Z,98171.36
2019-02-18T08:17:06.498Z,98170.91
2019-02-18T08:19:33.164Z,98168.49
2019-02-18T08:21:59.910Z,98168.16
2019-02-18T08:24:26.576Z,98171.78
2019-02-18T08:26:53.250Z,98166.70
2019-02-18T08:29:20.077Z,98178.02
2019-02-18T08:31:46.730Z,98166.68
2019-02-18T08:34:13.661Z,98166.51
2019-02-18T08:36:40.256Z,98165.47
2019-02-18T08:39:06.849Z,98167.89
2019-02-18T08:41:34.181Z,98160.70
2019-02-18T08:44:00.929Z,98161.44
2019-02-18T08:46:28.147Z,98161.52
2019-02-18T08:48:55.029Z,98163.72
2019-02-18T08:51:24.241Z,98154.84
2019-02-18T08:53:51.166Z,98160.87
2019-02-18T08:56:21.109Z,98158.56
2019-02-18T08:58:47.480Z,98156.63
2019-02-18T09:01:14.135Z,98158.10
2019-02-18T09:03:42.462Z,98154.09
2019-02-18T09:06:09.961Z,98150.83
2019-02-18T09:08:37.294Z,98151.98
2019-02-18T09:11:06.261Z,98155.27
2019-02-18T09:13:32.875Z,98154.55
2019-02-18T09:16:00.566Z,98151.58
2019-02-18T09:18:29.754Z,98152.52
2019-02-18T09:20:58.527Z,98148.70
2019-02-18T09:23:28.419Z,98145.97
2019-02-18T09:25:55.328Z,98148.48
2019-02-18T09:28:21.970Z,98146.41
2019-02-18T09:30:48.604Z,98143.08
2019-02-18T09:33:15.351Z,98146.76
2019-02-18T09:35:43.043Z,98150.93
2019-02-18T09:38:09.981Z,98146.99
2019-02-18T09:40:44.255Z,98143.00
2019-02-18T09:43:08.175Z,98142.06
2019-02-18T09:45:37.091Z,98138.04
2019-02-18T09:48:07.317Z,98135.73
2019-02-18T09:50:35.661Z,98136.66
2019-02-18T09:53:04.738Z,98140.59
2019-02-18T09:55:35.139Z,98138.78
2019-02-18T09:58:02.900Z,98132.98
2019-02-18T10:00:31.160Z,98138.28
2019-02-18T10:02:58.859Z,98138.34
2019-02-18T10:08:13.834Z,98131.72
2019-02-18T10:10:43.721Z,98128.88
2019-02-18T10:13:16.508Z,98124.20
2019-02-18T10:15:46.134Z,98121.13
2019-02-18T10:18:13.312Z,98120.23
2019-02-18T10:20:44.685Z,98120.45
2019-02-18T10:23:16.365Z,98115.80
2019-02-18T10:25:48.247Z,98109.23
2019-02-18T10:28:15.714Z,98106.73
2019-02-18T10:30:44.869Z,98112.77
2019-02-18T10:33:14.560Z,98100.77
2019-02-18T10:35:42.656Z,98101.34
2019-02-18T10:38:10.479Z,98099.88
2019-02-18T10:40:39.554Z,98095.73
2019-02-18T10:43:07.762Z,98094.18
2019-02-18T10:45:36.910Z,98093.41
2019-02-18T10:48:07.403Z,98082.22
2019-02-18T10:50:38.226Z,98082.11
2019-02-18T10:53:06.321Z,98077.54
2019-02-18T10:55:34.502Z,98072.59
2019-02-18T10:58:01.192Z,98069.30
2019-02-18T11:00:30.076Z,98067.69
2019-02-18T11:02:56.856Z,98063.22
2019-02-18T11:05:24.216Z,98057.31
2019-02-18T11:07:54.806Z,98057.75
2019-02-18T11:10:23.560Z,98056.06
2019-02-18T11:12:51.411Z,98053.40
2019-02-18T11:15:25.623Z,98046.05
2019-02-18T11:17:55.713Z,98046.14
2019-02-18T11:20:24.245Z,98043.25
2019-02-18T11:22:52.373Z,98041.27
2019-02-18T11:25:19.181Z,98041.84
2019-02-18T11:27:45.853Z,98034.52
2019-02-18T11:30:14.533Z,98033.12
2019-02-18T11:32:41.806Z,98026.83
2019-02-18T11:35:09.532Z,98017.70
2019-02-18T11:37:37.717Z,98026.64
2019-02-18T11:40:04.767Z,98028.92
2019-02-18T11:42:32.655Z,98021.50
2019-02-18T11:44:59.522Z,98015.04
2019-02-18T11:47:29.329Z,98010.30
2019-02-18T11:49:57.009Z,98011.89
2019-02-18T11:52:24.321Z,98008.33
2019-02-18T11:54:51.032Z,98001.69
2019-02-18T11:57:23.918Z,97993.01
2019-02-18T11:59:52.958Z,97995.13
2019-02-18T12:02:22.984Z,97987.78
2019-02-18T12:04:53.255Z,97983.13
2019-02-18T12:07:24.054Z,97977.03
2019-02-18T12:09:50.793Z,97975.84
2019-02-18T12:15:05.809Z,97970.34
2019-02-18T12:17:35.910Z,97968.16
2019-02-18T12:20:03.914Z,97959.05
2019-02-18T12:22:32.220Z,97960.80
2019-02-18T12:25:01.046Z,97950.81
2019-02-18T12:27:32.136Z,97948.86
2019-02-18T12:30:06.911Z,97954.31
2019-02-18T12:32:30.803Z,97943.02
2019-02-18T12:34:58.375Z,97942.00
2019-02-18T12:37:29.945Z,97937.56
2019-02-18T12:39:58.434Z,97927.23
2019-02-18T12:42:27.598Z,97928.02
2019-02-18T12:44:54.847Z,97930.09
2019-02-18T12:47:22.803Z,97921.45
2019-02-18T12:49:51.052Z,97920.15
2019-02-18T12:52:17.955Z,97909.68
2019-02-18T12:54:44.797Z,97910.98
2019-02-18T12:57:12.158Z,97908.56
2019-02-18T12:59:39.243Z,97900.45
2019-02-18T13:02:05.931Z,97893.20
2019-02-18T13:04:32.823Z,97888.32
2019-02-18T13:06:59.770Z,97887.58
2019-02-18T13:09:26.789Z,97882.80
2019-02-18T13:11:59.042Z,97884.12
2019-02-18T13:14:23.987Z,97882.32
2019-02-18T13:16:50.711Z,97886.08
2019-02-18T13:19:17.360Z,97882.75
2019-02-18T13:21:44.089Z,97875.33
2019-02-18T13:24:10.926Z,97872.97
2019-02-18T13:26:38.212Z,97871.05
2019-02-18T13:29:05.206Z,97871.62
2019-02-18T13:31:32.332Z,97873.97
2019-02-18T13:33:59.015Z,97867.02
2019-02-18T13:36:26.638Z,97871.75
2019-02-18T13:38:54.386Z,97862.04
2019-02-18T13:41:21.141Z,97872.23
2019-02-18T13:43:48.143Z,97860.29
2019-02-18T13:46:15.302Z,97866.28
2019-02-18T13:48:42.510Z,97866.95
2019-02-18T13:51:09.515Z,97866.64
2019-02-18T13:53:36.220Z,97867.97
2019-02-18T13:56:02.860Z,97872.78
2019-02-18T13:58:29.797Z,97871.80
2019-02-18T14:00:56.818Z,97867.25
2019-02-18T14:03:24.826Z,97867.32
2019-02-18T14:05:51.581Z,97870.45
2019-02-18T14:08:18.567Z,97865.29
2019-02-18T14:10:45.382Z,97867.09
2019-02-18T14:13:12.111Z,97863.95
2019-02-18T14:15:39.430Z,97867.44
2019-02-18T14:18:06.343Z,97862.50
2019-02-18T14:20:33.011Z,97864.09
2019-02-18T14:23:00.118Z,97864.04
2019-02-18T14:25:26.790Z,97861.72
2019-02-18T14:27:55.195Z,97860.36
2019-02-18T14:30:21.893Z,97860.06
2019-02-18T14:32:48.626Z,97855.87
2019-02-18T14:35:15.278Z,97856.05
2019-02-18T14:37:42.183Z,97855.67
2019-02-18T14:40:09.448Z,97849.69
2019-02-18T14:42:37.391Z,97847.95
2019-02-18T14:45:04.445Z,97848.14
2019-02-18T14:47:31.384Z,97852.20
2019-02-18T14:49:58.329Z,97850.59
2019-02-18T14:52:25.797Z,97848.27
2019-02-18T14:54:52.487Z,97844.58
2019-02-18T14:57:19.639Z,97842.39
2019-02-18T14:59:46.580Z,97848.56
2019-02-18T15:02:13.832Z,97842.30
2019-02-18T15:04:40.804Z,97846.80
2019-02-18T15:07:07.632Z,97839.23
2019-02-18T15:09:34.731Z,97841.82
2019-02-18T15:12:01.946Z,97835.90
2019-02-18T15:14:28.971Z,97836.02
2019-02-18T15:16:56.509Z,97843.90
2019-02-18T15:19:23.161Z,97834.84
2019-02-18T15:21:49.987Z,97837.23
2019-02-18T15:24:16.888Z,97826.84
2019-02-18T15:26:44.436Z,97833.77
2019-02-18T15:29:11.493Z,97831.78
2019-02-18T15:31:38.404Z,97829.98
2019-02-18T15:34:05.772Z,97828.43
2019-02-18T15:36:32.422Z,97823.38
2019-02-18T15:38:59.390Z,97827.25
2019-02-18T15:41:26.760Z,97823.59
2019-02-18T15:43:53.443Z,97825.33
2019-02-18T15:46:20.303Z,97827.90
2019-02-18T15:48:46.971Z,97825.66
2019-02-18T15:51:13.885Z,97821.56
2019-02-18T15:53:40.805Z,97814.79
2019-02-18T15:56:14.816Z,97822.41
2019-02-18T15:58:41.619Z,97816.81
2019-02-18T16:01:08.805Z,97821.13
2019-02-18T16:03:35.722Z,97813.57
2019-02-18T16:06:02.369Z,97818.81
2019-02-18T16:08:29.240Z,97822.42
2019-02-18T16:10:57.156Z,97822.23
2019-02-18T16:13:23.844Z,97823.04
2019-02-18T16:15:50.943Z,97825.06
2019-02-18T16:18:17.972Z,97830.44
2019-02-18T16:20:45.105Z,97832.08
2019-02-18T16:23:12.067Z,97827.94
2019-02-18T16:25:38.908Z,97826.21
2019-02-18T16:28:06.169Z,97834.00
2019-02-18T16:30:33.082Z,97828.98
2019-02-18T16:32:59.975Z,97825.55
2019-02-18T16:35:27.573Z,97833.02
2019-02-18T16:37:54.336Z,97832.89
2019-02-18T16:40:21.233Z,97835.34
2019-02-18T16:42:48.113Z,97833.02
2019-02-18T16:45:15.400Z,97833.81
2019-02-18T16:47:42.221Z,97834.30
2019-02-18T16:50:08.950Z,97836.53
2019-02-18T16:52:36.973Z,97840.80
2019-02-18T16:55:03.716Z,97836.27
2019-02-18T16:57:32.148Z,97833.45
2019-02-18T16:59:59.562Z,97839.61
2019-02-18T17:02:28.171Z,97839.34
2019-02-18T17:04:55.674Z,97836.16
2019-02-18T17:07:22.562Z,97838.66
2019-02-18T17:09:50.005Z,97840.88
2019-02-18T17:12:17.852Z,97843.70
2019-02-18T17:14:46.352Z,97840.22
2019-02-18T17:17:13.984Z,97844.25
2019-02-18T17:19:41.507Z,97841.27
2019-02-18T17:22:08.365Z,97849.38
2019-02-18T17:24:35.563Z,97841.40
2019-02-18T17:27:02.637Z,97851.45
2019-02-18T17:29:30.209Z,97855.11
2019-02-18T17:31:58.334Z,97848.02
2019-02-18T17:34:25.289Z,97857.81
2019-02-18T17:36:52.195Z,97861.72
2019-02-18T17:39:19.651Z,97864.02
2019-02-18T17:41:47.148Z,97866.45
2019-02-18T17:44:19.926Z,97866.86
2019-02-18T17:46:43.146Z,97860.51
2019-02-18T17:49:09.802Z,97858.58
2019-02-18T17:51:37.593Z,97855.45
2019-02-18T17:54:05.062Z,97855.55
2019-02-18T17:56:32.217Z,97860.84
2019-02-18T17:59:00.460Z,97861.34
2019-02-18T18:01:27.458Z,97860.31
2019-02-18T18:03:54.927Z,97866.44
2019-02-18T18:06:24.057Z,97858.92
2019-02-18T18:08:51.431Z,97859.04
2019-02-18T18:11:19.155Z,97859.87
2019-02-18T18:13:46.234Z,97862.55
2019-02-18T18:16:12.976Z,97860.95
2019-02-18T18:18:40.381Z,97861.64
2019-02-18T18:21:07.131Z,97859.53
2019-02-18T18:23:34.155Z,97855.45
2019-02-18T18:26:00.954Z,97860.77
2019-02-18T18:28:27.969Z,97859.09
2019-02-18T18:30:55.160Z,97860.66
2019-02-18T18:33:21.833Z,97861.45
2019-02-18T18:35:48.876Z,97851.96
2019-02-18T18:38:15.849Z,97853.58
2019-02-18T18:40:42.854Z,97852.16
2019-02-18T18:43:09.784Z,97850.69
2019-02-18T18:45:38.697Z,97851.34
2019-02-18T18:48:08.443Z,97850.95
2019-02-18T18:50:37.110Z,97845.07
2019-02-18T18:53:07.150Z,97846.41
2019-02-18T18:55:35.580Z,97846.29
2019-02-18T18:58:03.447Z,97845.76
2019-02-18T19:00:33.390Z,97850.36
2019-02-18T19:03:05.653Z,97853.38
2019-02-18T19:05:33.261Z,97851.56
2019-02-18T19:08:01.772Z,97849.13
2019-02-18T19:10:29.831Z,97842.69
2019-02-18T19:12:59.704Z,97849.28
2019-02-18T19:15:29.880Z,97850.91
2019-02-18T19:17:58.731Z,97849.44
2019-02-18T19:23:16.059Z,97852.27
2019-02-18T19:25:43.708Z,97848.81
2019-02-18T19:28:14.558Z,97842.80
2019-02-18T19:30:45.247Z,97848.89
2019-02-18T19:33:14.795Z,97851.39
2019-02-18T19:35:42.152Z,97846.16
2019-02-18T19:38:09.837Z,97853.21
2019-02-18T19:40:37.997Z,97850.92
2019-02-18T19:43:05.437Z,97848.96
2019-02-18T19:45:34.348Z,97855.34
2019-02-18T19:48:04.031Z,97844.98
2019-02-18T19:50:31.422Z,97848.92
2019-02-18T19:53:13.712Z,97846.13
2019-02-18T19:55:29.727Z,97852.17
2019-02-18T19:57:58.953Z,97850.54
2019-02-18T20:00:28.291Z,97854.80
2019-02-18T20:02:56.074Z,97851.70
2019-02-18T20:05:22.668Z,97848.75
2019-02-18T20:07:49.587Z,97852.51
2019-02-18T20:10:16.241Z,97853.81
2019-02-18T20:12:43.127Z,97848.23
2019-02-18T20:15:12.089Z,97846.58
2019-02-18T20:17:40.429Z,97849.85
2019-02-18T20:20:07.342Z,97845.58
2019-02-18T20:22:34.669Z,97846.54
2019-02-18T20:25:01.291Z,97842.64
2019-02-18T20:27:28.224Z,97843.28
2019-02-18T20:29:55.009Z,97836.12
2019-02-18T20:32:23.539Z,97837.92
2019-02-18T20:34:50.768Z,97833.16
2019-02-18T20:37:17.967Z,97831.82
2019-02-18T20:39:45.553Z,97830.98
2019-02-18T20:42:13.510Z,97830.59
2019-02-18T20:47:11.805Z,97825.22
2019-02-18T20:49:38.892Z,97829.46
2019-02-18T20:52:05.564Z,97829.32
2019-02-18T20:54:32.208Z,97832.44
2019-02-18T20:56:58.845Z,97833.09
2019-02-18T20:59:27.972Z,97830.42
2019-02-18T21:01:54.886Z,97822.04
2019-02-18T21:04:21.823Z,97824.75
2019-02-18T21:06:48.606Z,97824.02
2019-02-18T21:09:15.295Z,97824.11
2019-02-18T21:11:42.313Z,97819.36
2019-02-18T21:14:15.899Z,97819.56
2019-02-18T21:16:39.211Z,97813.58
2019-02-18T21:19:06.991Z,97808.98
2019-02-18T21:21:33.848Z,97807.22
2019-02-18T21:24:00.746Z,97801.12
2019-02-18T21:26:27.386Z,97794.91
2019-02-18T21:28:54.332Z,97801.27
2019-02-18T21:31:22.223Z,97794.23
2019-02-18T21:33:49.282Z,97791.73
2019-02-18T21:36:16.384Z,97790.44
2019-02-18T21:38:43.116Z,97788.93
2019-02-18T21:41:10.026Z,97788.64
2019-02-18T21:43:36.631Z,97790.17
2019-02-18T21:46:03.296Z,97789.05
2019-02-18T21:48:30.188Z,97783.70
2019-02-18T21:50:57.370Z,97783.73
2019-02-18T21:53:24.223Z,97778.73
2019-02-18T21:55:50.803Z,97776.34
2019-02-18T21:58:17.419Z,97773.48
2019-02-18T22:00:44.377Z,97777.06
2019-02-18T22:03:11.565Z,97780.02
2019-02-18T22:05:39.799Z,97771.86
2019-02-18T22:08:06.708Z,97777.27
2019-02-18T22:10:33.632Z,97772.75
2019-02-18T22:13:00.680Z,97777.59
2019-02-18T22:15:27.583Z,97771.23
2019-02-18T22:17:54.714Z,97775.69
2019-02-18T22:20:21.308Z,97769.69
2019-02-18T22:22:47.983Z,97774.91
2019-02-18T22:25:14.862Z,97774.32
2019-02-18T22:27:41.795Z,97773.27
2019-02-18T22:30:10.318Z,97773.19
2019-02-18T22:32:36.946Z,97770.65
2019-02-18T22:35:03.809Z,97774.48
2019-02-18T22:37:31.051Z,97770.90
2019-02-18T22:39:58.032Z,97767.09
2019-02-18T22:42:24.614Z,97764.13
2019-02-18T22:44:51.265Z,97761.03
2019-02-18T22:47:18.069Z,97762.09
2019-02-18T22:49:44.869Z,97757.11
2019-02-18T22:52:11.507Z,97756.70
2019-02-18T22:54:38.251Z,97743.59
2019-02-18T22:57:05.360Z,97751.34
2019-02-18T22:59:32.334Z,97748.93
2019-02-18T23:01:58.964Z,97747.90
2019-02-18T23:04:25.699Z,97751.41
2019-02-18T23:06:52.378Z,97746.78
2019-02-18T23:09:18.966Z,97747.14
2019-02-18T23:11:45.591Z,97747.69
2019-02-18T23:14:12.535Z,97744.80
2019-02-18T23:16:41.104Z,97739.66
2019-02-18T23:19:07.790Z,97736.34
2019-02-18T23:21:34.705Z,97737.61
2019-02-18T23:24:01.937Z,97732.05
2019-02-18T23:26:28.756Z,97731.78
2019-02-18T23:28:55.697Z,97734.75
2019-02-18T23:31:22.301Z,97726.24
2019-02-18T23:33:48.946Z,97731.82
2019-02-18T23:36:15.768Z,97721.58
2019-02-18T23:38:42.352Z,97725.65
2019-02-18T23:41:09.019Z,97727.94
2019-02-18T23:43:36.035Z,97720.44
2019-02-18T23:46:03.213Z,97723.14
2019-02-18T23:48:30.060Z,97723.21
2019-02-18T23:50:57.286Z,97717.51
2019-02-18T23:53:23.970Z,97721.19
2019-02-18T23:55:51.117Z,97721.42
2019-02-18T23:58:18.037Z,97717.05
